createdAt,value
2023-02-18T00:00:57.699Z,5.63
2023-02-18T00:03:25.393Z,6.38
2023-02-18T00:05:52.419Z,6.75
2023-02-18T00:08:19.748Z,7.60
2023-02-18T00:10:46.238Z,7.97
2023-02-18T00:13:13.038Z,7.75
2023-02-18T00:15:40.108Z,6.97
2023-02-18T00:18:07.072Z,8.13
2023-02-18T00:20:35.732Z,6.70
2023-02-18T00:23:03.358Z,7.63
2023-02-18T00:25:29.861Z,6.80
2023-02-18T00:27:56.283Z,6.80
2023-02-18T00:30:22.740Z,5.95
2023-02-18T00:32:49.161Z,7.40
2023-02-18T00:35:15.581Z,6.38
2023-02-18T00:37:41.914Z,5.18
2023-02-18T00:40:08.582Z,6.43
2023-02-18T00:42:34.972Z,5.80
2023-02-18T00:45:01.498Z,6.05
2023-02-18T00:47:27.855Z,5.40
2023-02-18T00:49:54.247Z,6.82
2023-02-18T00:52:20.621Z,6.47
2023-02-18T00:54:47.005Z,6.90
2023-02-18T00:57:13.402Z,7.95
2023-02-18T00:59:39.781Z,7.60
2023-02-18T01:02:07.532Z,7.38
2023-02-18T01:04:34.062Z,5.88
2023-02-18T01:07:00.530Z,6.45
2023-02-18T01:09:27.010Z,6.75
2023-02-18T01:11:53.446Z,7.18
2023-02-18T01:14:19.802Z,6.35
2023-02-18T01:16:46.163Z,6.85
2023-02-18T01:19:12.544Z,6.63
2023-02-18T01:21:39.170Z,5.30
2023-02-18T01:24:06.139Z,6.32
2023-02-18T01:26:32.502Z,6.88
2023-02-18T01:28:58.873Z,7.30
2023-02-18T01:31:25.316Z,7.05
2023-02-18T01:33:51.803Z,7.20
2023-02-18T01:36:18.386Z,5.82
2023-02-18T01:38:44.767Z,7.20
2023-02-18T01:41:11.250Z,7.00
2023-02-18T01:43:38.644Z,5.95
2023-02-18T01:46:17.996Z,6.05
2023-02-18T01:48:56.906Z,6.15
2023-02-18T01:51:27.242Z,5.82
2023-02-18T01:54:02.736Z,7.28
2023-02-18T01:56:36.880Z,5.60
2023-02-18T01:59:07.365Z,6.40
2023-02-18T02:01:34.985Z,6.10
2023-02-18T02:04:01.629Z,6.82
2023-02-18T02:06:27.999Z,6.78
2023-02-18T02:08:58.708Z,6.10
2023-02-18T02:11:41.309Z,5.60
2023-02-18T02:14:13.559Z,4.80
2023-02-18T02:17:04.120Z,5.55
2023-02-18T02:20:09.166Z,6.05
2023-02-18T02:22:50.886Z,6.18
2023-02-18T02:25:40.240Z,5.32
2023-02-18T02:28:18.623Z,4.32
2023-02-18T02:31:14.673Z,6.60
2023-02-18T02:33:56.148Z,4.95
2023-02-18T02:36:36.648Z,5.70
2023-02-18T02:39:15.202Z,6.78
2023-02-18T02:42:21.056Z,5.35
2023-02-18T02:44:57.073Z,6.10
2023-02-18T02:47:53.834Z,6.72
2023-02-18T02:50:28.563Z,5.38
2023-02-18T02:53:02.182Z,6.05
2023-02-18T02:55:28.579Z,5.32
2023-02-18T02:57:56.451Z,6.13
2023-02-18T03:00:40.524Z,5.78
2023-02-18T03:03:25.492Z,6.43
2023-02-18T03:06:15.416Z,6.53
2023-02-18T03:09:00.143Z,6.88
2023-02-18T03:11:31.009Z,6.53
2023-02-18T03:14:02.340Z,6.25
2023-02-18T03:16:53.671Z,4.85
2023-02-18T03:19:26.055Z,5.80
2023-02-18T03:21:58.589Z,6.47
2023-02-18T03:24:34.597Z,6.82
2023-02-18T03:27:12.313Z,6.03
2023-02-18T03:29:40.516Z,5.32
2023-02-18T03:32:10.621Z,5.00
2023-02-18T03:34:44.569Z,5.95
2023-02-18T03:37:12.993Z,5.03
2023-02-18T03:39:44.246Z,6.15
2023-02-18T03:42:10.954Z,5.68
2023-02-18T03:44:37.363Z,6.55
2023-02-18T03:47:03.895Z,6.25
2023-02-18T03:49:30.261Z,5.72
2023-02-18T03:51:56.622Z,7.22
2023-02-18T03:54:23.001Z,5.95
2023-02-18T03:56:49.379Z,5.25
2023-02-18T03:59:15.775Z,6.95
2023-02-18T04:01:42.140Z,4.97
2023-02-18T04:04:08.643Z,5.70
2023-02-18T04:06:35.284Z,5.93
2023-02-18T04:09:02.598Z,5.40
2023-02-18T04:11:28.976Z,5.22
2023-02-18T04:13:55.397Z,5.95
2023-02-18T04:16:21.798Z,5.72
2023-02-18T04:18:48.225Z,4.20
2023-02-18T04:21:14.590Z,6.60
2023-02-18T04:23:40.988Z,6.05
2023-02-18T04:26:07.694Z,4.85
2023-02-18T04:28:34.371Z,5.97
2023-02-18T04:31:00.850Z,5.78
2023-02-18T04:33:27.374Z,6.60
2023-02-18T04:35:53.758Z,5.50
2023-02-18T04:38:20.314Z,5.35
2023-02-18T04:40:47.135Z,6.00
2023-02-18T04:43:13.526Z,4.88
2023-02-18T04:45:40.029Z,5.32
2023-02-18T04:48:06.530Z,5.30
2023-02-18T04:50:32.964Z,5.75
2023-02-18T04:52:59.422Z,4.45
2023-02-18T04:55:25.819Z,5.00
2023-02-18T04:57:52.274Z,5.38
2023-02-18T05:00:20.221Z,5.03
2023-02-18T05:02:47.288Z,5.65
2023-02-18T05:05:14.658Z,5.50
2023-02-18T05:07:42.343Z,5.00
2023-02-18T05:10:11.174Z,4.63
2023-02-18T05:12:37.579Z,5.05
2023-02-18T05:15:04.585Z,5.72
2023-02-18T05:17:30.998Z,5.78
2023-02-18T05:19:57.442Z,4.57
2023-02-18T05:22:23.785Z,5.80
2023-02-18T05:24:50.153Z,4.88
2023-02-18T05:27:16.634Z,5.22
2023-02-18T05:29:43.231Z,5.38
2023-02-18T05:32:09.744Z,3.78
2023-02-18T05:34:36.205Z,5.13
2023-02-18T05:37:02.623Z,4.75
2023-02-18T05:39:29.329Z,5.80
2023-02-18T05:41:55.711Z,4.85
2023-02-18T05:44:31.040Z,5.13
2023-02-18T05:46:58.952Z,5.07
2023-02-18T05:49:25.515Z,4.35
2023-02-18T05:51:51.915Z,5.13
2023-02-18T05:54:18.286Z,4.57
2023-02-18T05:56:44.661Z,5.63
2023-02-18T05:59:11.216Z,4.13
2023-02-18T06:01:37.662Z,5.10
2023-02-18T06:04:04.177Z,4.32
2023-02-18T06:06:30.544Z,4.55
2023-02-18T06:08:56.932Z,5.00
2023-02-18T06:11:23.461Z,4.00
2023-02-18T06:13:49.840Z,3.95
2023-02-18T06:16:16.293Z,4.57
2023-02-18T06:18:42.876Z,4.90
2023-02-18T06:21:09.294Z,6.20
2023-02-18T06:23:35.671Z,5.28
2023-02-18T06:26:02.135Z,4.72
2023-02-18T06:28:28.507Z,4.85
2023-02-18T06:30:54.936Z,4.70
2023-02-18T06:33:21.327Z,4.80
2023-02-18T06:36:02.122Z,5.25
2023-02-18T06:38:29.133Z,4.43
2023-02-18T06:40:55.577Z,3.90
2023-02-18T06:43:22.530Z,5.88
2023-02-18T06:45:48.956Z,4.72
2023-02-18T06:48:16.804Z,4.47
2023-02-18T06:50:43.664Z,6.50
2023-02-18T06:53:10.234Z,7.18
2023-02-18T06:55:36.742Z,6.70
2023-02-18T06:58:03.632Z,6.25
2023-02-18T07:00:30.154Z,5.70
2023-02-18T07:02:56.528Z,7.63
2023-02-18T07:05:22.917Z,5.63
2023-02-18T07:07:49.334Z,5.80
2023-02-18T07:10:15.798Z,7.43
2023-02-18T07:12:42.201Z,6.45
2023-02-18T07:15:09.095Z,5.90
2023-02-18T07:17:35.502Z,5.47
2023-02-18T07:20:02.058Z,6.43
2023-02-18T07:22:28.488Z,6.47
2023-02-18T07:24:54.995Z,5.82
2023-02-18T07:27:22.213Z,5.90
2023-02-18T07:29:48.959Z,6.65
2023-02-18T07:32:17.297Z,7.72
2023-02-18T07:34:43.693Z,4.90
2023-02-18T07:37:10.550Z,6.68
2023-02-18T07:39:40.484Z,7.57
2023-02-18T07:42:06.917Z,7.13
2023-02-18T07:44:33.376Z,10.45
2023-02-18T07:46:59.854Z,11.80
2023-02-18T07:49:26.277Z,8.82
2023-02-18T07:51:52.683Z,7.40
2023-02-18T07:54:19.121Z,6.63
2023-02-18T07:56:45.723Z,4.53
2023-02-18T07:59:13.385Z,5.97
2023-02-18T08:01:40.603Z,4.47
2023-02-18T08:04:07.378Z,5.30
2023-02-18T08:06:39.087Z,6.45
2023-02-18T08:09:05.823Z,6.13
2023-02-18T08:11:32.527Z,5.00
2023-02-18T08:13:58.987Z,4.63
2023-02-18T08:16:26.202Z,4.28
2023-02-18T08:18:53.437Z,4.20
2023-02-18T08:21:22.156Z,6.55
2023-02-18T08:23:48.995Z,4.63
2023-02-18T08:26:15.876Z,5.07
2023-02-18T08:28:44.369Z,6.68
2023-02-18T08:31:20.618Z,3.85
2023-02-18T08:33:47.658Z,4.97
2023-02-18T08:36:14.504Z,6.38
2023-02-18T08:38:40.879Z,5.13
2023-02-18T08:41:08.915Z,5.25
2023-02-18T08:43:36.454Z,4.82
2023-02-18T08:46:03.165Z,5.22
2023-02-18T08:48:29.815Z,5.30
2023-02-18T08:50:56.332Z,4.35
2023-02-18T08:53:22.768Z,5.70
2023-02-18T08:55:49.200Z,5.43
2023-02-18T08:58:15.687Z,4.43
2023-02-18T09:00:43.471Z,5.43
2023-02-18T09:03:13.909Z,5.70
2023-02-18T09:05:41.215Z,5.10
2023-02-18T09:08:07.710Z,4.20
2023-02-18T09:10:34.618Z,5.03
2023-02-18T09:13:01.179Z,4.25
2023-02-18T09:15:27.629Z,6.03
2023-02-18T09:17:54.042Z,4.22
2023-02-18T09:20:20.640Z,5.93
2023-02-18T09:22:47.022Z,5.07
2023-02-18T09:25:13.377Z,5.07
2023-02-18T09:27:39.799Z,5.43
2023-02-18T09:30:06.901Z,6.53
2023-02-18T09:32:35.013Z,6.15
2023-02-18T09:35:02.784Z,5.28
2023-02-18T09:37:29.214Z,5.68
2023-02-18T09:39:55.686Z,5.85
2023-02-18T09:42:30.372Z,5.90
2023-02-18T09:45:02.474Z,5.90
2023-02-18T09:47:37.039Z,5.32
2023-02-18T09:50:09.306Z,6.25
2023-02-18T09:52:38.472Z,6.07
2023-02-18T09:55:38.075Z,7.60
2023-02-18T09:58:14.210Z,6.13
2023-02-18T10:00:48.498Z,6.53
2023-02-18T10:03:23.889Z,7.25
2023-02-18T10:06:16.315Z,7.68
2023-02-18T10:08:45.711Z,6.95
2023-02-18T10:11:28.525Z,7.40
2023-02-18T10:13:55.996Z,8.00
2023-02-18T10:16:24.084Z,6.97
2023-02-18T10:18:54.380Z,6.97
2023-02-18T10:21:24.953Z,7.25
2023-02-18T10:24:03.943Z,8.55
2023-02-18T10:26:33.419Z,8.85
2023-02-18T10:29:00.008Z,7.85
2023-02-18T10:31:37.178Z,8.25
2023-02-18T10:34:11.528Z,8.48
2023-02-18T10:36:45.847Z,8.63
2023-02-18T10:39:15.021Z,9.23
2023-02-18T10:41:47.885Z,7.63
2023-02-18T10:44:46.519Z,8.13
2023-02-18T10:47:21.827Z,8.65
2023-02-18T10:49:57.987Z,8.73
2023-02-18T10:52:29.714Z,9.30
2023-02-18T10:55:04.509Z,8.70
2023-02-18T10:57:31.977Z,9.30
2023-02-18T11:00:26.405Z,10.20
2023-02-18T11:03:32.121Z,9.70
2023-02-18T11:05:59.060Z,9.85
2023-02-18T11:08:36.548Z,10.00
2023-02-18T11:11:16.624Z,10.77
2023-02-18T11:13:43.488Z,9.77
2023-02-18T11:16:12.452Z,10.32
2023-02-18T11:18:46.673Z,10.70
2023-02-18T11:21:29.816Z,9.50
2023-02-18T11:23:57.846Z,10.55
2023-02-18T11:26:32.577Z,9.63
2023-02-18T11:29:04.289Z,9.10
2023-02-18T11:31:46.529Z,10.02
2023-02-18T11:34:18.393Z,10.35
2023-02-18T11:36:46.155Z,11.38
2023-02-18T11:39:33.697Z,10.18
2023-02-18T11:42:05.456Z,10.07
2023-02-18T11:44:41.444Z,10.23
2023-02-18T11:47:13.666Z,9.50
2023-02-18T11:49:42.548Z,9.47
2023-02-18T11:52:33.489Z,9.18
2023-02-18T11:55:03.377Z,8.70
2023-02-18T11:57:30.614Z,9.00
2023-02-18T11:59:57.352Z,10.32
2023-02-18T12:02:29.479Z,10.00
2023-02-18T12:05:04.943Z,8.95
2023-02-18T12:07:56.907Z,9.70
2023-02-18T12:10:41.060Z,9.48
2023-02-18T12:13:27.821Z,10.07
2023-02-18T12:16:26.689Z,8.30
2023-02-18T12:18:57.284Z,9.73
2023-02-18T12:21:52.852Z,7.90
2023-02-18T12:25:01.418Z,10.02
2023-02-18T12:27:36.150Z,10.32
2023-02-18T12:30:39.868Z,9.80
2023-02-18T12:33:15.209Z,10.40
2023-02-18T12:35:56.564Z,9.77
2023-02-18T12:38:47.908Z,8.80
2023-02-18T12:41:29.102Z,8.75
2023-02-18T12:44:10.196Z,10.60
2023-02-18T12:46:55.655Z,9.30
2023-02-18T12:49:41.088Z,9.50
2023-02-18T12:52:29.176Z,10.25
2023-02-18T12:55:24.195Z,9.38
2023-02-18T12:57:56.552Z,9.35
2023-02-18T13:00:53.061Z,10.35
2023-02-18T13:03:47.421Z,10.90
2023-02-18T13:06:19.949Z,7.88
2023-02-18T13:08:55.184Z,10.27
2023-02-18T13:11:27.532Z,9.80
2023-02-18T13:14:09.243Z,8.90
2023-02-18T13:16:38.044Z,9.90
2023-02-18T13:19:18.603Z,9.27
2023-02-18T13:21:47.976Z,9.98
2023-02-18T13:24:30.653Z,9.77
2023-02-18T13:27:08.694Z,9.70
2023-02-18T13:29:42.324Z,8.32
2023-02-18T13:32:22.616Z,8.63
2023-02-18T13:35:13.598Z,8.95
2023-02-18T13:37:50.201Z,8.25
2023-02-18T13:40:26.485Z,9.45
2023-02-18T13:42:53.918Z,10.18
2023-02-18T13:45:24.784Z,9.57
2023-02-18T13:47:51.984Z,10.88
2023-02-18T13:50:25.722Z,10.95
2023-02-18T13:53:19.867Z,10.45
2023-02-18T13:56:01.316Z,9.57
2023-02-18T13:58:31.505Z,10.70
2023-02-18T14:01:05.818Z,10.13
2023-02-18T14:03:44.198Z,9.98
2023-02-18T14:06:19.831Z,9.55
2023-02-18T14:08:47.273Z,10.68
2023-02-18T14:11:14.136Z,9.57
2023-02-18T14:13:54.685Z,9.77
2023-02-18T14:16:21.572Z,10.15
2023-02-18T14:19:01.318Z,10.25
2023-02-18T14:21:39.497Z,9.50
2023-02-18T14:24:09.489Z,9.82
2023-02-18T14:26:48.685Z,9.77
2023-02-18T14:29:28.754Z,10.68
2023-02-18T14:32:01.672Z,9.32
2023-02-18T14:34:52.055Z,9.93
2023-02-18T14:37:42.061Z,9.32
2023-02-18T14:40:15.846Z,9.32
2023-02-18T14:42:47.971Z,9.15
2023-02-18T14:45:35.429Z,10.85
2023-02-18T14:48:20.607Z,9.93
2023-02-18T14:50:50.491Z,8.88
2023-02-18T14:53:23.641Z,8.82
2023-02-18T14:55:54.256Z,8.35
2023-02-18T14:58:32.468Z,8.70
2023-02-18T15:01:25.988Z,9.10
2023-02-18T15:03:55.237Z,9.60
2023-02-18T15:06:32.349Z,8.75
2023-02-18T15:09:00.056Z,9.70
2023-02-18T15:12:05.491Z,8.98
2023-02-18T15:14:33.897Z,9.48
2023-02-18T15:17:01.275Z,9.70
2023-02-18T15:19:39.805Z,9.02
2023-02-18T15:22:06.219Z,9.18
2023-02-18T15:24:37.753Z,9.63
2023-02-18T15:27:15.752Z,9.40
2023-02-18T15:29:42.673Z,9.20
2023-02-18T15:32:21.857Z,10.30
2023-02-18T15:35:02.677Z,9.32
2023-02-18T15:37:30.564Z,9.82
2023-02-18T15:39:57.441Z,9.77
2023-02-18T15:42:36.467Z,8.98
2023-02-18T15:45:05.881Z,9.77
2023-02-18T15:47:32.990Z,10.02
2023-02-18T15:50:02.841Z,9.10
2023-02-18T15:52:32.941Z,9.02
2023-02-18T15:55:07.757Z,9.88
2023-02-18T15:57:36.601Z,9.25
2023-02-18T16:00:14.594Z,9.13
2023-02-18T16:02:53.386Z,8.63
2023-02-18T16:05:25.503Z,8.38
2023-02-18T16:07:56.580Z,8.52
2023-02-18T16:10:36.856Z,7.57
2023-02-18T16:13:04.735Z,8.60
2023-02-18T16:15:37.598Z,8.30
2023-02-18T16:18:04.667Z,9.55
2023-02-18T16:20:34.165Z,9.15
2023-02-18T16:23:04.146Z,9.00
2023-02-18T16:25:48.877Z,8.00
2023-02-18T16:28:32.914Z,8.98
2023-02-18T16:30:59.462Z,8.07
2023-02-18T16:33:25.835Z,7.28
2023-02-18T16:35:52.405Z,8.15
2023-02-18T16:38:21.994Z,7.72
2023-02-18T16:40:48.981Z,8.27
2023-02-18T16:43:18.350Z,8.85
2023-02-18T16:45:53.137Z,7.72
2023-02-18T16:48:29.860Z,8.90
2023-02-18T16:50:56.749Z,7.57
2023-02-18T16:53:23.661Z,8.63
2023-02-18T16:55:50.893Z,7.20
2023-02-18T16:58:17.549Z,7.75
2023-02-18T17:00:45.533Z,7.72
2023-02-18T17:03:13.266Z,7.47
2023-02-18T17:05:40.513Z,8.13
2023-02-18T17:08:16.132Z,29.67
2023-02-18T17:10:42.786Z,60.25
2023-02-18T17:13:20.810Z,48.38
2023-02-18T17:15:49.822Z,21.05
2023-02-18T17:18:16.678Z,19.40
2023-02-18T17:20:43.308Z,18.92
2023-02-18T17:23:21.684Z,11.65
2023-02-18T17:25:49.105Z,9.65
2023-02-18T17:28:19.098Z,9.80
2023-02-18T17:30:49.224Z,9.90
2023-02-18T17:33:18.108Z,9.88
2023-02-18T17:35:45.326Z,10.20
2023-02-18T17:38:16.787Z,8.18
2023-02-18T17:40:43.941Z,8.45
2023-02-18T17:43:15.226Z,9.88
2023-02-18T17:45:53.519Z,9.50
2023-02-18T17:48:20.727Z,9.52
2023-02-18T17:50:47.176Z,10.57
2023-02-18T17:53:14.570Z,10.18
2023-02-18T17:55:42.739Z,9.80
2023-02-18T17:58:10.055Z,9.75
2023-02-18T18:00:40.012Z,10.15
2023-02-18T18:03:06.423Z,10.65
2023-02-18T18:05:35.923Z,9.02
2023-02-18T18:08:03.625Z,9.05
2023-02-18T18:10:33.910Z,10.05
2023-02-18T18:13:06.387Z,8.00
2023-02-18T18:15:41.169Z,10.15
2023-02-18T18:18:07.850Z,9.32
2023-02-18T18:20:35.154Z,8.52
2023-02-18T18:23:04.262Z,9.10
2023-02-18T18:25:36.895Z,9.90
2023-02-18T18:28:04.058Z,8.93
2023-02-18T18:30:34.532Z,8.98
2023-02-18T18:33:01.510Z,9.10
2023-02-18T18:35:30.648Z,9.82
2023-02-18T18:37:57.512Z,10.05
2023-02-18T18:40:28.054Z,8.25
2023-02-18T18:42:55.970Z,8.50
2023-02-18T18:45:25.427Z,8.40
2023-02-18T18:47:52.545Z,8.43
2023-02-18T18:50:19.840Z,8.23
2023-02-18T18:52:47.859Z,9.18
2023-02-18T18:55:19.536Z,8.57
2023-02-18T18:57:47.279Z,8.20
2023-02-18T19:00:15.306Z,9.90
2023-02-18T19:02:41.812Z,8.18
2023-02-18T19:05:32.038Z,9.82
2023-02-18T19:07:59.281Z,7.82
2023-02-18T19:10:28.321Z,7.93
2023-02-18T19:12:56.004Z,7.13
2023-02-18T19:15:23.253Z,6.53
2023-02-18T19:17:52.864Z,8.32
2023-02-18T19:20:22.447Z,7.95
2023-02-18T19:22:48.856Z,7.78
2023-02-18T19:25:16.092Z,8.05
2023-02-18T19:27:44.771Z,42.83
2023-02-18T19:30:17.844Z,37.13
2023-02-18T19:32:45.845Z,10.70
2023-02-18T19:35:12.534Z,7.40
2023-02-18T19:37:39.007Z,7.28
2023-02-18T19:40:07.113Z,6.65
2023-02-18T19:42:33.733Z,6.82
2023-02-18T19:45:00.370Z,6.40
2023-02-18T19:47:27.221Z,6.15
2023-02-18T19:49:54.682Z,6.55
2023-02-18T19:52:21.711Z,6.50
2023-02-18T19:54:48.356Z,6.38
2023-02-18T19:57:15.163Z,6.85
2023-02-18T19:59:41.634Z,7.15
2023-02-18T20:02:14.109Z,6.22
2023-02-18T20:04:40.611Z,7.88
2023-02-18T20:07:07.585Z,6.40
2023-02-18T20:09:34.016Z,6.10
2023-02-18T20:12:00.374Z,6.30
2023-02-18T20:14:28.049Z,6.05
2023-02-18T20:16:54.590Z,6.28
2023-02-18T20:19:23.350Z,7.28
2023-02-18T20:21:49.923Z,12.77
2023-02-18T20:24:16.724Z,9.05
2023-02-18T20:26:43.715Z,9.85
2023-02-18T20:29:10.191Z,8.98
2023-02-18T20:31:38.179Z,8.85
2023-02-18T20:34:04.727Z,9.45
2023-02-18T20:36:31.417Z,7.35
2023-02-18T20:39:07.584Z,8.82
2023-02-18T20:41:41.621Z,6.38
2023-02-18T20:44:11.411Z,8.43
2023-02-18T20:46:39.916Z,6.85
2023-02-18T20:49:15.559Z,8.57
2023-02-18T20:51:42.735Z,7.90
2023-02-18T20:54:15.532Z,8.15
2023-02-18T20:56:43.712Z,8.20
2023-02-18T20:59:14.916Z,8.15
2023-02-18T21:01:43.286Z,6.82
2023-02-18T21:04:14.512Z,7.50
2023-02-18T21:06:41.101Z,6.38
2023-02-18T21:09:08.295Z,7.97
2023-02-18T21:11:34.816Z,7.68
2023-02-18T21:14:01.650Z,7.13
2023-02-18T21:16:29.366Z,6.55
2023-02-18T21:18:55.810Z,6.38
2023-02-18T21:21:25.164Z,6.35
2023-02-18T21:23:52.053Z,7.53
2023-02-18T21:26:21.822Z,7.40
2023-02-18T21:28:50.631Z,7.88
2023-02-18T21:31:19.943Z,6.30
2023-02-18T21:33:47.034Z,8.02
2023-02-18T21:36:14.365Z,6.70
2023-02-18T21:38:43.004Z,7.32
2023-02-18T21:41:09.751Z,5.78
2023-02-18T21:43:36.466Z,6.95
2023-02-18T21:46:12.982Z,7.28
2023-02-18T21:48:58.015Z,5.85
2023-02-18T21:51:43.012Z,6.85
2023-02-18T21:54:09.532Z,4.95
2023-02-18T21:56:36.684Z,6.45
2023-02-18T21:59:03.219Z,7.25
2023-02-18T22:01:29.658Z,7.88
2023-02-18T22:03:56.105Z,8.15
2023-02-18T22:06:22.831Z,8.38
2023-02-18T22:08:49.471Z,8.50
2023-02-18T22:11:16.105Z,7.28
2023-02-18T22:13:42.507Z,40.60
2023-02-18T22:16:08.940Z,15.80
2023-02-18T22:18:35.492Z,8.00
2023-02-18T22:21:07.379Z,6.80
2023-02-18T22:23:34.089Z,7.07
2023-02-18T22:26:11.100Z,5.85
2023-02-18T22:28:37.555Z,5.50
2023-02-18T22:31:09.961Z,5.35
2023-02-18T22:33:36.735Z,6.35
2023-02-18T22:36:07.176Z,5.57
2023-02-18T22:38:35.563Z,6.60
2023-02-18T22:41:07.648Z,5.90
2023-02-18T22:43:34.619Z,6.07
2023-02-18T22:46:05.566Z,6.15
2023-02-18T22:48:33.435Z,5.80
2023-02-18T22:51:25.564Z,6.00
2023-02-18T22:53:54.349Z,6.15
2023-02-18T22:56:22.520Z,5.93
2023-02-18T22:58:51.799Z,5.05
2023-02-18T23:01:28.718Z,5.35
2023-02-18T23:03:57.064Z,5.30
2023-02-18T23:06:23.844Z,5.50
2023-02-18T23:08:50.760Z,5.43
2023-02-18T23:11:20.115Z,5.00
2023-02-18T23:14:07.535Z,5.53
2023-02-18T23:16:54.752Z,5.35
2023-02-18T23:19:21.946Z,6.32
2023-02-18T23:21:48.441Z,6.45
2023-02-18T23:24:14.910Z,5.18
2023-02-18T23:26:41.848Z,4.45
2023-02-18T23:29:08.827Z,5.47
2023-02-18T23:31:37.712Z,5.00
2023-02-18T23:34:06.402Z,5.30
2023-02-18T23:36:34.536Z,5.05
2023-02-18T23:39:08.262Z,4.63
2023-02-18T23:41:36.163Z,6.07
2023-02-18T23:44:03.914Z,4.82
2023-02-18T23:46:30.875Z,4.88
2023-02-18T23:48:59.181Z,6.00
2023-02-18T23:51:26.153Z,4.82
2023-02-18T23:53:52.954Z,5.60
2023-02-18T23:56:24.698Z,4.50
2023-02-18T23:58:54.911Z,5.05
